createdAt,value
2017-11-08T00:00:25.276Z,15.83
2017-11-08T00:03:30.349Z,16.20
2017-11-08T00:06:36.428Z,18.20
2017-11-08T00:09:41.164Z,17.50
2017-11-08T00:12:45.887Z,16.70
2017-11-08T00:15:52.741Z,17.40
2017-11-08T00:18:59.201Z,16.73
2017-11-08T00:22:04.095Z,17.20
2017-11-08T00:25:09.481Z,17.50
2017-11-08T00:28:14.568Z,17.50
2017-11-08T00:31:20.476Z,17.50
2017-11-08T00:34:26.068Z,17.63
2017-11-08T00:37:31.441Z,17.57
2017-11-08T00:40:36.541Z,16.33
2017-11-08T00:43:41.483Z,16.90
2017-11-08T00:46:46.560Z,15.03
2017-11-08T00:49:51.307Z,16.67
2017-11-08T00:52:56.910Z,15.10
2017-11-08T00:56:02.937Z,17.33
2017-11-08T00:59:08.560Z,14.67
2017-11-08T01:02:13.828Z,15.10
2017-11-08T01:05:20.213Z,15.33
2017-11-08T01:08:24.861Z,13.77
2017-11-08T01:11:30.320Z,15.43
2017-11-08T01:14:35.358Z,14.53
2017-11-08T01:17:40.411Z,15.20
2017-11-08T01:20:45.820Z,15.40
2017-11-08T01:23:52.198Z,14.27
2017-11-08T01:26:57.944Z,15.00
2017-11-08T01:30:04.593Z,15.23
2017-11-08T01:33:09.570Z,16.20
2017-11-08T01:36:14.744Z,15.17
2017-11-08T01:39:19.588Z,15.60
2017-11-08T01:42:24.992Z,14.73
2017-11-08T01:45:29.816Z,15.53
2017-11-08T01:48:35.428Z,15.10
2017-11-08T01:51:40.901Z,15.60
2017-11-08T01:54:45.773Z,14.17
2017-11-08T01:57:51.353Z,14.13
2017-11-08T02:00:57.552Z,16.10
2017-11-08T02:04:02.556Z,15.80
2017-11-08T02:07:07.923Z,16.07
2017-11-08T02:10:13.229Z,14.53
2017-11-08T02:13:18.491Z,14.60
2017-11-08T02:16:24.156Z,14.17
2017-11-08T02:19:29.093Z,15.37
2017-11-08T02:22:33.892Z,15.07
2017-11-08T02:25:39.397Z,15.47
2017-11-08T02:28:44.500Z,14.53
2017-11-08T02:31:49.877Z,15.80
2017-11-08T02:34:55.466Z,14.40
2017-11-08T02:38:01.436Z,14.13
2017-11-08T02:41:07.532Z,15.60
2017-11-08T02:44:12.477Z,14.57
2017-11-08T02:47:17.404Z,14.83
2017-11-08T02:50:22.479Z,15.40
2017-11-08T02:53:29.104Z,15.10
2017-11-08T02:56:34.036Z,14.17
2017-11-08T02:59:39.008Z,14.00
2017-11-08T03:02:50.520Z,14.57
2017-11-08T03:05:56.213Z,16.00
2017-11-08T03:09:01.856Z,16.07
2017-11-08T03:12:07.080Z,17.70
2017-11-08T03:15:12.109Z,15.63
2017-11-08T03:18:17.248Z,14.63
2017-11-08T03:21:23.634Z,14.80
2017-11-08T03:24:29.134Z,16.40
2017-11-08T03:27:34.989Z,14.17
2017-11-08T03:30:40.553Z,14.03
2017-11-08T03:33:46.199Z,15.30
2017-11-08T03:36:51.875Z,15.47
2017-11-08T03:39:57.552Z,17.80
2017-11-08T03:43:03.845Z,16.93
2017-11-08T03:46:09.555Z,15.80
2017-11-08T03:49:14.384Z,18.63
2017-11-08T03:52:20.780Z,17.47
2017-11-08T03:55:25.763Z,17.60
2017-11-08T03:58:31.105Z,16.27
2017-11-08T04:01:36.183Z,16.37
2017-11-08T04:04:41.695Z,17.83
2017-11-08T04:07:46.712Z,17.33
2017-11-08T04:10:51.787Z,19.10
2017-11-08T04:13:58.178Z,16.43
2017-11-08T04:17:03.341Z,16.63
2017-11-08T04:20:08.058Z,16.20
2017-11-08T04:23:12.864Z,16.60
2017-11-08T04:26:19.359Z,15.43
2017-11-08T04:29:25.733Z,15.37
2017-11-08T04:32:30.968Z,15.50
2017-11-08T04:35:37.380Z,14.83
2017-11-08T04:38:42.287Z,15.97
2017-11-08T04:41:47.608Z,15.60
2017-11-08T04:44:53.203Z,16.13
2017-11-08T04:47:58.592Z,15.53
2017-11-08T04:51:03.374Z,15.13
2017-11-08T04:54:09.605Z,14.30
2017-11-08T04:57:14.904Z,15.00
2017-11-08T05:00:19.819Z,15.77
2017-11-08T05:03:24.957Z,14.77
2017-11-08T05:06:30.639Z,15.10
2017-11-08T05:09:35.693Z,15.80
2017-11-08T05:12:41.181Z,16.23
2017-11-08T05:15:46.311Z,15.63
2017-11-08T05:18:51.744Z,15.50
2017-11-08T05:21:57.160Z,15.80
2017-11-08T05:25:02.197Z,14.80
2017-11-08T05:28:07.040Z,15.00
2017-11-08T05:31:21.820Z,16.20
2017-11-08T05:34:33.346Z,16.07
2017-11-08T05:37:39.380Z,17.10
2017-11-08T05:40:52.036Z,15.77
2017-11-08T05:43:57.703Z,18.80
2017-11-08T05:47:02.958Z,15.47
2017-11-08T05:50:15.087Z,18.67
2017-11-08T05:53:19.719Z,17.90
2017-11-08T05:56:25.092Z,17.00
2017-11-08T05:59:36.207Z,15.80
2017-11-08T06:02:41.644Z,17.30
2017-11-08T06:05:47.496Z,16.20
2017-11-08T06:08:53.067Z,17.53
2017-11-08T06:12:00.262Z,17.10
2017-11-08T06:15:12.319Z,17.30
2017-11-08T06:18:17.349Z,19.40
2017-11-08T06:21:23.393Z,18.00
2017-11-08T06:24:28.160Z,17.50
2017-11-08T06:27:36.608Z,18.13
2017-11-08T06:30:42.999Z,18.80
2017-11-08T06:33:48.769Z,16.63
2017-11-08T06:36:55.436Z,19.57
2017-11-08T06:40:01.011Z,18.37
2017-11-08T06:43:13.584Z,18.17
2017-11-08T06:46:20.116Z,17.97
2017-11-08T06:49:25.704Z,17.40
2017-11-08T06:52:33.873Z,18.20
2017-11-08T06:55:39.408Z,18.67
2017-11-08T06:58:44.685Z,18.37
2017-11-08T07:01:49.811Z,19.23
2017-11-08T07:04:55.295Z,18.60
2017-11-08T07:08:01.002Z,18.53
2017-11-08T07:11:06.005Z,17.30
2017-11-08T07:14:11.575Z,16.60
2017-11-08T07:17:16.817Z,19.43
2017-11-08T07:20:22.368Z,18.93
2017-11-08T07:23:28.151Z,19.87
2017-11-08T07:26:33.634Z,16.90
2017-11-08T07:29:39.024Z,17.97
2017-11-08T07:32:44.052Z,18.27
2017-11-08T07:35:50.035Z,17.93
2017-11-08T07:38:55.404Z,17.20
2017-11-08T07:42:01.719Z,18.60
2017-11-08T07:45:07.230Z,19.33
2017-11-08T07:48:18.824Z,17.97
2017-11-08T07:51:23.715Z,18.70
2017-11-08T07:54:28.614Z,18.77
2017-11-08T07:57:39.512Z,18.93
2017-11-08T08:00:45.340Z,18.13
2017-11-08T08:03:50.665Z,18.27
2017-11-08T08:06:56.021Z,17.90
2017-11-08T08:10:01.584Z,18.00
2017-11-08T08:13:06.548Z,19.00
2017-11-08T08:16:18.205Z,18.40
2017-11-08T08:19:25.617Z,17.07
2017-11-08T08:22:33.910Z,18.20
2017-11-08T08:25:38.740Z,15.60
2017-11-08T08:28:45.250Z,19.60
2017-11-08T08:31:50.594Z,19.73
2017-11-08T08:34:55.901Z,23.60
2017-11-08T08:38:02.236Z,22.90
2017-11-08T08:41:07.783Z,23.40
2017-11-08T08:44:12.645Z,21.90
2017-11-08T08:47:17.663Z,18.30
2017-11-08T08:50:23.643Z,17.47
2017-11-08T08:53:28.919Z,21.73
2017-11-08T08:56:34.209Z,19.40
2017-11-08T08:59:39.680Z,19.80
2017-11-08T09:02:47.232Z,19.80
2017-11-08T09:05:52.684Z,19.00
2017-11-08T09:08:58.062Z,17.07
2017-11-08T09:12:04.108Z,17.60
2017-11-08T09:15:09.426Z,18.17
2017-11-08T09:18:15.089Z,18.20
2017-11-08T09:21:22.805Z,17.37
2017-11-08T09:24:28.144Z,17.17
2017-11-08T09:27:34.623Z,18.33
2017-11-08T09:30:39.756Z,18.03
2017-11-08T09:33:45.289Z,18.60
2017-11-08T09:36:51.681Z,18.40
2017-11-08T09:39:57.212Z,19.20
2017-11-08T09:43:05.596Z,17.90
2017-11-08T09:46:10.684Z,18.10
2017-11-08T09:49:16.047Z,19.13
2017-11-08T09:52:21.592Z,17.53
2017-11-08T09:55:26.696Z,16.83
2017-11-08T09:58:31.852Z,14.97
2017-11-08T10:01:41.847Z,15.07
2017-11-08T10:04:47.971Z,15.83
2017-11-08T10:07:53.860Z,15.03
2017-11-08T10:10:59.025Z,15.13
2017-11-08T10:14:05.283Z,16.27
2017-11-08T10:17:12.700Z,14.07
2017-11-08T10:20:18.601Z,14.73
2017-11-08T10:23:27.208Z,14.60
2017-11-08T10:26:32.058Z,13.67
2017-11-08T10:29:37.292Z,14.50
2017-11-08T10:32:42.390Z,15.00
2017-11-08T10:35:47.307Z,13.57
2017-11-08T10:38:52.568Z,15.33
2017-11-08T10:41:59.271Z,14.20
2017-11-08T10:45:03.985Z,14.80
2017-11-08T10:48:09.436Z,13.90
2017-11-08T10:51:20.000Z,12.87
2017-11-08T10:54:25.393Z,12.80
2017-11-08T10:57:31.067Z,13.77
2017-11-08T11:00:42.615Z,13.03
2017-11-08T11:03:47.992Z,13.23
2017-11-08T11:06:53.293Z,14.07
2017-11-08T11:09:59.377Z,13.03
2017-11-08T11:13:10.690Z,14.10
2017-11-08T11:16:16.331Z,13.40
2017-11-08T11:19:21.408Z,12.53
2017-11-08T11:22:26.929Z,11.80
2017-11-08T11:25:33.725Z,11.90
2017-11-08T11:28:39.417Z,12.63
2017-11-08T11:31:45.188Z,12.33
2017-11-08T11:34:50.937Z,13.90
2017-11-08T11:37:56.336Z,12.40
2017-11-08T11:41:01.711Z,12.80
2017-11-08T11:44:07.422Z,12.20
2017-11-08T11:47:13.818Z,10.67
2017-11-08T11:50:20.228Z,12.20
2017-11-08T11:53:25.745Z,10.87
2017-11-08T11:56:30.758Z,11.03
2017-11-08T11:59:37.339Z,10.30
2017-11-08T12:02:42.553Z,11.53
2017-11-08T12:05:47.649Z,11.57
2017-11-08T12:08:53.422Z,11.97
2017-11-08T12:11:58.916Z,11.70
2017-11-08T12:15:04.626Z,11.60
2017-11-08T12:18:10.245Z,9.87
2017-11-08T12:21:16.207Z,10.30
2017-11-08T12:24:22.716Z,9.40
2017-11-08T12:27:27.817Z,11.03
2017-11-08T12:30:33.530Z,11.53
2017-11-08T12:33:41.434Z,10.17
2017-11-08T12:36:46.926Z,9.63
2017-11-08T12:39:58.076Z,9.43
2017-11-08T12:43:07.753Z,9.83
2017-11-08T12:46:13.993Z,9.73
2017-11-08T12:49:20.484Z,9.73
2017-11-08T12:52:25.974Z,9.20
2017-11-08T12:55:32.309Z,9.67
2017-11-08T12:58:38.221Z,8.83
2017-11-08T13:01:43.506Z,9.40
2017-11-08T13:04:48.813Z,9.90
2017-11-08T13:07:53.913Z,10.50
2017-11-08T13:11:05.313Z,9.40
2017-11-08T13:14:11.902Z,9.97
2017-11-08T13:17:17.893Z,9.27
2017-11-08T13:20:23.455Z,9.37
2017-11-08T13:23:29.121Z,9.27
2017-11-08T13:26:34.183Z,9.70
2017-11-08T13:29:39.748Z,9.40
2017-11-08T13:32:44.850Z,9.30
2017-11-08T13:35:50.561Z,9.27
2017-11-08T13:38:56.136Z,10.47
2017-11-08T13:42:01.265Z,9.13
2017-11-08T13:45:07.850Z,9.87
2017-11-08T13:48:12.965Z,10.07
2017-11-08T13:51:18.581Z,10.17
2017-11-08T13:54:24.017Z,9.33
2017-11-08T13:57:29.866Z,9.20
2017-11-08T14:00:35.217Z,9.60
2017-11-08T14:03:40.849Z,9.90
2017-11-08T14:06:45.820Z,9.20
2017-11-08T14:09:51.393Z,11.20
2017-11-08T14:12:56.574Z,9.80
2017-11-08T14:16:03.046Z,9.33
2017-11-08T14:19:08.500Z,9.17
2017-11-08T14:22:13.145Z,9.70
2017-11-08T14:25:19.209Z,10.07
2017-11-08T14:28:25.509Z,9.60
2017-11-08T14:31:30.352Z,10.00
2017-11-08T14:34:36.181Z,10.20
2017-11-08T14:37:41.314Z,10.10
2017-11-08T14:40:46.233Z,10.00
2017-11-08T14:43:51.933Z,10.10
2017-11-08T14:46:57.274Z,9.67
2017-11-08T14:50:03.567Z,10.50
2017-11-08T14:53:15.134Z,8.93
2017-11-08T14:56:20.600Z,10.33
2017-11-08T14:59:25.989Z,9.47
2017-11-08T15:02:31.533Z,10.70
2017-11-08T15:05:36.446Z,9.70
2017-11-08T15:08:42.429Z,10.97
2017-11-08T15:11:52.585Z,10.30
2017-11-08T15:18:33.731Z,10.20
2017-11-08T15:21:39.284Z,9.63
2017-11-08T15:24:45.632Z,10.50
2017-11-08T15:27:50.874Z,8.27
2017-11-08T15:30:56.079Z,10.67
2017-11-08T15:34:01.425Z,10.40
2017-11-08T15:37:08.208Z,10.33
2017-11-08T15:40:16.220Z,11.60
2017-11-08T15:43:21.929Z,12.07
2017-11-08T15:46:27.052Z,11.00
2017-11-08T15:49:32.226Z,10.63
2017-11-08T15:52:37.172Z,9.90
2017-11-08T15:55:42.856Z,10.20
2017-11-08T15:58:48.397Z,10.00
2017-11-08T16:01:54.846Z,10.10
2017-11-08T16:04:59.742Z,9.20
2017-11-08T16:08:04.732Z,10.10
2017-11-08T16:11:11.298Z,9.70
2017-11-08T16:14:16.435Z,10.17
2017-11-08T16:17:22.312Z,10.03
2017-11-08T16:20:27.593Z,10.50
2017-11-08T16:23:34.722Z,10.17
2017-11-08T16:26:39.914Z,10.70
2017-11-08T16:29:45.729Z,9.90
2017-11-08T16:32:50.545Z,10.50
2017-11-08T16:35:55.485Z,10.17
2017-11-08T16:39:01.865Z,11.03
2017-11-08T16:42:06.649Z,9.27
2017-11-08T16:45:12.857Z,10.53
2017-11-08T16:48:18.572Z,10.70
2017-11-08T16:51:24.089Z,11.50
2017-11-08T16:54:29.073Z,11.57
2017-11-08T16:57:34.801Z,10.90
2017-11-08T17:00:40.380Z,11.47
2017-11-08T17:03:45.861Z,10.63
2017-11-08T17:06:50.847Z,10.37
2017-11-08T17:09:56.089Z,10.63
2017-11-08T17:13:01.921Z,10.70
2017-11-08T17:16:06.609Z,10.30
2017-11-08T17:19:12.317Z,12.17
2017-11-08T17:22:17.755Z,12.10
2017-11-08T17:25:23.553Z,10.33
2017-11-08T17:28:29.281Z,11.77
2017-11-08T17:31:34.729Z,11.50
2017-11-08T17:34:40.422Z,11.43
2017-11-08T17:37:45.790Z,12.23
2017-11-08T17:40:51.152Z,11.23
2017-11-08T17:43:56.550Z,12.30
2017-11-08T17:47:02.186Z,11.33
2017-11-08T17:50:07.750Z,11.80
2017-11-08T17:53:12.973Z,12.30
2017-11-08T17:56:22.056Z,12.53
2017-11-08T17:59:27.143Z,13.43
2017-11-08T18:02:32.479Z,11.83
2017-11-08T18:05:37.316Z,12.67
2017-11-08T18:08:43.185Z,13.30
2017-11-08T18:11:48.428Z,13.80
2017-11-08T18:14:53.569Z,13.30
2017-11-08T18:17:58.405Z,13.80
2017-11-08T18:21:03.277Z,13.37
2017-11-08T18:24:08.942Z,13.27
2017-11-08T18:27:15.238Z,12.20
2017-11-08T18:30:20.788Z,12.43
2017-11-08T18:33:26.528Z,14.00
2017-11-08T18:36:31.769Z,14.07
2017-11-08T18:39:37.133Z,14.40
2017-11-08T18:42:42.637Z,12.37
2017-11-08T18:45:47.974Z,14.47
2017-11-08T18:48:52.852Z,12.90
2017-11-08T18:51:59.078Z,15.20
2017-11-08T18:55:04.090Z,13.23
2017-11-08T18:58:09.895Z,14.80
2017-11-08T19:01:14.952Z,14.10
2017-11-08T19:04:20.584Z,14.17
2017-11-08T19:07:25.734Z,14.80
2017-11-08T19:10:31.343Z,13.23
2017-11-08T19:13:37.068Z,14.93
2017-11-08T19:16:42.353Z,14.17
2017-11-08T19:19:47.381Z,14.30
2017-11-08T19:22:52.972Z,14.50
2017-11-08T19:25:58.358Z,14.20
2017-11-08T19:29:04.084Z,12.90
2017-11-08T19:32:10.321Z,14.63
2017-11-08T19:35:15.932Z,14.33
2017-11-08T19:38:21.505Z,15.43
2017-11-08T19:41:26.532Z,14.90
2017-11-08T19:44:31.936Z,15.97
2017-11-08T19:47:38.528Z,16.83
2017-11-08T19:50:43.646Z,16.03
2017-11-08T19:53:48.394Z,16.30
2017-11-08T19:56:53.558Z,16.87
2017-11-08T19:59:58.696Z,16.63
2017-11-08T20:03:04.329Z,16.30
2017-11-08T20:06:10.377Z,16.70
2017-11-08T20:09:15.369Z,16.50
2017-11-08T20:12:21.928Z,14.87
2017-11-08T20:15:26.876Z,14.73
2017-11-08T20:18:32.518Z,14.97
2017-11-08T20:21:38.009Z,15.47
2017-11-08T20:24:42.903Z,15.17
2017-11-08T20:27:48.205Z,15.70
2017-11-08T20:30:55.016Z,14.00
2017-11-08T20:34:00.853Z,14.67
2017-11-08T20:37:05.978Z,13.40
2017-11-08T20:40:13.194Z,14.50
2017-11-08T20:43:18.080Z,12.43
2017-11-08T20:46:23.445Z,11.70
2017-11-08T20:49:28.673Z,13.30
2017-11-08T20:52:36.175Z,12.93
2017-11-08T20:55:41.668Z,14.70
2017-11-08T20:58:48.723Z,13.27
2017-11-08T21:01:53.881Z,14.20
2017-11-08T21:05:00.262Z,12.43
2017-11-08T21:08:05.684Z,13.03
2017-11-08T21:11:11.444Z,11.57
2017-11-08T21:14:18.569Z,13.70
2017-11-08T21:17:23.731Z,12.60
2017-11-08T21:20:28.689Z,13.13
2017-11-08T21:23:34.804Z,13.40
2017-11-08T21:26:40.261Z,14.60
2017-11-08T21:29:45.761Z,13.70
2017-11-08T21:32:50.852Z,14.33
2017-11-08T21:35:56.821Z,12.17
2017-11-08T21:39:05.572Z,13.07
2017-11-08T21:42:10.939Z,13.97
2017-11-08T21:45:15.937Z,12.23
2017-11-08T21:48:21.693Z,11.40
2017-11-08T21:51:27.132Z,11.90
2017-11-08T21:54:33.801Z,13.37
2017-11-08T21:57:39.808Z,13.73
2017-11-08T22:00:45.049Z,12.53
2017-11-08T22:03:50.373Z,14.07
2017-11-08T22:06:56.020Z,13.53
2017-11-08T22:10:02.425Z,12.67
2017-11-08T22:13:07.465Z,13.00
2017-11-08T22:16:13.278Z,13.80
2017-11-08T22:19:18.573Z,14.13
2017-11-08T22:22:24.857Z,14.83
2017-11-08T22:25:31.285Z,13.70
2017-11-08T22:28:36.407Z,12.90
2017-11-08T22:31:41.817Z,13.33
2017-11-08T22:34:48.276Z,14.63
2017-11-08T22:37:55.892Z,14.27
2017-11-08T22:41:00.761Z,14.50
2017-11-08T22:44:06.198Z,13.33
2017-11-08T22:47:12.860Z,14.70
2017-11-08T22:50:18.729Z,15.60
2017-11-08T22:53:24.597Z,15.30
2017-11-08T22:56:29.869Z,14.33
2017-11-08T22:59:35.762Z,15.23
2017-11-08T23:02:41.156Z,13.60
2017-11-08T23:05:46.773Z,15.17
2017-11-08T23:08:52.415Z,14.13
2017-11-08T23:12:01.232Z,15.00
2017-11-08T23:15:06.376Z,14.80
2017-11-08T23:18:11.544Z,13.87
2017-11-08T23:21:17.356Z,14.20
2017-11-08T23:24:22.729Z,14.40
2017-11-08T23:27:28.505Z,15.27
2017-11-08T23:30:34.296Z,14.83
2017-11-08T23:33:39.972Z,15.70
2017-11-08T23:36:45.360Z,15.27
2017-11-08T23:39:50.599Z,14.80
2017-11-08T23:42:56.368Z,14.90
2017-11-08T23:46:02.121Z,15.77
2017-11-08T23:49:08.592Z,15.00
2017-11-08T23:52:13.514Z,14.90
2017-11-08T23:55:20.097Z,13.90
2017-11-08T23:58:28.045Z,14.90
